Time;durP1;ratioP1;P1;durP2;ratioP2;P2;SDS_P1;SDS_P2;PMS_P1;PMS_P2;Temp;Humidity;BMP_temperature;BMP_pressure;BME280_temperature;BME280_humidity;BME280_pressure;Samples;Min_cycle;Max_cycle;Signal;HPM_P1;HPM_P2
2021/08/16 00:01:17;;;;;;;7.23;3.10;;;;;;;;;;4998710;28;20393;-85
2021/08/16 00:03:43;;;;;;;5.23;2.83;;;;;;;;;;5014872;28;20440;-81
2021/08/16 00:06:09;;;;;;;3.03;2.33;;;;;;;;;;5015893;28;20401;-80
2021/08/16 00:08:35;;;;;;;4.80;2.73;;;;;;;;;;5014995;28;20429;-84
2021/08/16 00:11:03;;;;;;;4.90;2.27;;;;;;;;;;5015000;28;20476;-81
2021/08/16 00:13:30;;;;;;;4.00;2.33;;;;;;;;;;5014806;28;20781;-82
2021/08/16 00:15:56;;;;;;;7.60;2.17;;;;;;;;;;5015400;28;20440;-81
2021/08/16 00:18:22;;;;;;;5.70;2.20;;;;;;;;;;5014371;28;20410;-84
2021/08/16 00:20:48;;;;;;;3.63;2.40;;;;;;;;;;5014743;28;20410;-82
2021/08/16 00:23:14;;;;;;;6.63;2.00;;;;;;;;;;5014756;28;20434;-81
2021/08/16 00:25:40;;;;;;;5.17;2.30;;;;;;;;;;5014954;28;20514;-83
2021/08/16 00:28:06;;;;;;;11.70;2.00;;;;;;;;;;5015133;28;20917;-82
2021/08/16 00:30:32;;;;;;;6.23;2.60;;;;;;;;;;5014834;28;20426;-82
2021/08/16 00:32:58;;;;;;;8.80;2.20;;;;;;;;;;5013651;28;20384;-82
2021/08/16 00:35:24;;;;;;;4.90;2.03;;;;;;;;;;5014149;28;20426;-83
2021/08/16 00:37:50;;;;;;;2.40;1.87;;;;;;;;;;5014150;28;20417;-81
2021/08/16 00:40:16;;;;;;;3.47;2.23;;;;;;;;;;5013950;28;20417;-82
2021/08/16 00:42:43;;;;;;;5.23;2.37;;;;;;;;;;5013707;28;20413;-82
2021/08/16 00:45:10;;;;;;;9.40;2.57;;;;;;;;;;4996690;28;21018;-82
2021/08/16 00:47:37;;;;;;;3.80;1.90;;;;;;;;;;4996365;28;20453;-84
2021/08/16 00:50:04;;;;;;;6.87;2.17;;;;;;;;;;5013812;28;20401;-82
2021/08/16 00:52:30;;;;;;;8.80;2.30;;;;;;;;;;4996628;28;20435;-83
2021/08/16 00:54:57;;;;;;;5.43;2.20;;;;;;;;;;5013252;28;20401;-84
2021/08/16 00:57:23;;;;;;;6.60;2.50;;;;;;;;;;5013555;28;20417;-82
2021/08/16 00:59:49;;;;;;;6.53;2.07;;;;;;;;;;5013706;28;20396;-85
2021/08/16 01:02:15;;;;;;;5.20;1.70;;;;;;;;;;5013359;28;20525;-85
2021/08/16 01:04:41;;;;;;;6.43;1.87;;;;;;;;;;5013185;28;20518;-84
2021/08/16 01:07:07;;;;;;;5.90;2.10;;;;;;;;;;5013573;28;20428;-84
2021/08/16 01:09:34;;;;;;;6.43;1.90;;;;;;;;;;5013469;28;20439;-83
2021/08/16 01:12:00;;;;;;;6.03;2.23;;;;;;;;;;5013499;28;20395;-85
2021/08/16 01:14:26;;;;;;;4.97;1.77;;;;;;;;;;5013008;28;20394;-85
2021/08/16 01:16:52;;;;;;;3.50;1.73;;;;;;;;;;5013335;28;20468;-81
2021/08/16 01:19:19;;;;;;;5.53;2.23;;;;;;;;;;4995668;28;20533;-81
2021/08/16 01:21:45;;;;;;;10.30;2.17;;;;;;;;;;5013413;28;20389;-83
2021/08/16 01:24:11;;;;;;;4.80;2.30;;;;;;;;;;5013006;28;20417;-86
2021/08/16 01:26:37;;;;;;;6.20;2.10;;;;;;;;;;5013123;28;20473;-80
2021/08/16 01:29:04;;;;;;;9.57;1.90;;;;;;;;;;5013969;28;20440;-83
2021/08/16 01:31:31;;;;;;;4.43;1.50;;;;;;;;;;5017002;28;20906;-81
2021/08/16 01:33:57;;;;;;;3.60;1.83;;;;;;;;;;5016849;28;20765;-82
2021/08/16 01:36:23;;;;;;;9.07;2.10;;;;;;;;;;5017027;28;20506;-83
2021/08/16 01:38:49;;;;;;;8.63;2.60;;;;;;;;;;4999559;28;20396;-80
2021/08/16 01:41:15;;;;;;;4.60;2.13;;;;;;;;;;5017045;28;20448;-84
2021/08/16 01:43:41;;;;;;;5.10;1.90;;;;;;;;;;4999313;28;20782;-83
2021/08/16 01:46:07;;;;;;;4.53;2.20;;;;;;;;;;5016852;28;20442;-84
2021/08/16 01:48:33;;;;;;;4.80;1.90;;;;;;;;;;5016861;28;20868;-81
2021/08/16 01:50:59;;;;;;;4.50;1.53;;;;;;;;;;5016862;28;20445;-84
2021/08/16 01:53:25;;;;;;;5.00;1.90;;;;;;;;;;5016441;28;20434;-83
2021/08/16 01:55:51;;;;;;;8.27;2.50;;;;;;;;;;5016511;28;20495;-82
2021/08/16 01:58:17;;;;;;;4.77;1.97;;;;;;;;;;5016710;28;20417;-81
2021/08/16 02:00:43;;;;;;;1.90;1.33;;;;;;;;;;5016690;28;20787;-84
2021/08/16 02:03:09;;;;;;;6.43;1.70;;;;;;;;;;4998653;28;20494;-83
2021/08/16 02:05:34;;;;;;;4.87;2.33;;;;;;;;;;5016572;28;20524;-84
2021/08/16 02:08:01;;;;;;;6.17;2.20;;;;;;;;;;5016541;28;20988;-80
2021/08/16 02:10:27;;;;;;;5.07;2.03;;;;;;;;;;5016529;28;20408;-81
2021/08/16 02:12:53;;;;;;;5.70;1.80;;;;;;;;;;5016115;28;20417;-81
2021/08/16 02:15:19;;;;;;;4.30;2.07;;;;;;;;;;5016356;28;20496;-82
2021/08/16 02:17:45;;;;;;;4.07;1.80;;;;;;;;;;5016326;28;20421;-84
2021/08/16 02:20:11;;;;;;;3.23;1.30;;;;;;;;;;5016260;28;20414;-82
2021/08/16 02:22:37;;;;;;;3.70;1.73;;;;;;;;;;5016167;28;20832;-80
2021/08/16 02:25:03;;;;;;;4.93;2.30;;;;;;;;;;5015945;28;20441;-83
2021/08/16 02:27:33;;;;;;;3.67;2.03;;;;;;;;;;5016028;28;20443;-82
2021/08/16 02:29:59;;;;;;;3.73;1.60;;;;;;;;;;5016099;28;20414;-82
2021/08/16 02:32:25;;;;;;;5.90;1.80;;;;;;;;;;5016161;28;20888;-81
2021/08/16 02:34:51;;;;;;;2.73;1.60;;;;;;;;;;5015694;28;20404;-83
2021/08/16 02:37:17;;;;;;;7.70;1.73;;;;;;;;;;5016063;28;20769;-81
2021/08/16 02:39:43;;;;;;;10.97;2.43;;;;;;;;;;5015993;28;20535;-84
2021/08/16 02:42:09;;;;;;;5.10;1.77;;;;;;;;;;5015105;28;20437;-82
2021/08/16 02:44:35;;;;;;;6.17;2.10;;;;;;;;;;5015826;28;20500;-83
2021/08/16 02:47:01;;;;;;;10.77;2.70;;;;;;;;;;5017957;28;20543;-82
2021/08/16 02:49:27;;;;;;;7.03;2.20;;;;;;;;;;5018152;28;20381;-82
2021/08/16 02:51:53;;;;;;;3.70;2.23;;;;;;;;;;5016947;28;20413;-84
2021/08/16 02:54:19;;;;;;;7.53;1.93;;;;;;;;;;5016405;28;20493;-86
2021/08/16 02:56:45;;;;;;;8.17;1.97;;;;;;;;;;5017216;28;20760;-81
2021/08/16 02:59:11;;;;;;;10.77;1.90;;;;;;;;;;5016799;28;20388;-80
2021/08/16 03:01:37;;;;;;;3.57;1.50;;;;;;;;;;4998000;28;20429;-81
2021/08/16 03:04:03;;;;;;;3.83;2.13;;;;;;;;;;5015138;28;20480;-82
2021/08/16 03:06:29;;;;;;;7.80;2.40;;;;;;;;;;5015331;28;20450;-81
2021/08/16 03:08:56;;;;;;;4.20;2.10;;;;;;;;;;5015309;28;20431;-80
2021/08/16 03:11:22;;;;;;;5.07;2.23;;;;;;;;;;5015507;28;20439;-85
2021/08/16 03:13:48;;;;;;;10.03;2.00;;;;;;;;;;5014996;28;20472;-82
2021/08/16 03:16:14;;;;;;;4.20;1.60;;;;;;;;;;5015161;28;20443;-86
2021/08/16 03:18:40;;;;;;;6.43;2.00;;;;;;;;;;5015192;28;20381;-83
2021/08/16 03:21:06;;;;;;;6.27;1.73;;;;;;;;;;5015413;28;21071;-85
2021/08/16 03:23:32;;;;;;;11.47;3.00;;;;;;;;;;5014810;28;20463;-82
2021/08/16 03:25:58;;;;;;;5.23;2.23;;;;;;;;;;4997522;28;21086;-81
2021/08/16 03:28:26;;;;;;;4.87;1.77;;;;;;;;;;4997480;28;20393;-86
2021/08/16 03:30:52;;;;;;;6.93;2.37;;;;;;;;;;4997507;28;21044;-84
2021/08/16 03:33:18;;;;;;;6.80;2.07;;;;;;;;;;4997460;28;20881;-84
2021/08/16 03:35:44;;;;;;;5.27;1.87;;;;;;;;;;5015066;28;20440;-82
2021/08/16 03:38:10;;;;;;;7.87;2.10;;;;;;;;;;4997393;28;20432;-84
2021/08/16 03:40:36;;;;;;;3.30;1.97;;;;;;;;;;5014823;28;20402;-83
2021/08/16 03:43:02;;;;;;;6.47;2.83;;;;;;;;;;5014709;28;20410;-83
2021/08/16 03:45:28;;;;;;;6.80;2.30;;;;;;;;;;5015117;28;20442;-84
2021/08/16 03:47:54;;;;;;;8.30;2.97;;;;;;;;;;5015464;28;20798;-82
2021/08/16 03:50:20;;;;;;;10.27;2.80;;;;;;;;;;4997873;28;20433;-87
2021/08/16 03:52:46;;;;;;;8.50;2.83;;;;;;;;;;5014154;28;20777;-83
2021/08/16 03:55:12;;;;;;;7.00;2.10;;;;;;;;;;5014606;28;20404;-83
2021/08/16 03:57:38;;;;;;;4.80;2.10;;;;;;;;;;5014442;28;20421;-83
2021/08/16 04:00:08;;;;;;;4.53;2.20;;;;;;;;;;5014449;28;20409;-81
2021/08/16 04:02:34;;;;;;;8.63;2.80;;;;;;;;;;5014286;28;20391;-83
2021/08/16 04:05:00;;;;;;;6.37;2.70;;;;;;;;;;5014087;28;20444;-85
2021/08/16 04:07:26;;;;;;;6.13;2.70;;;;;;;;;;5014145;28;20567;-82
2021/08/16 04:09:52;;;;;;;5.90;1.90;;;;;;;;;;5014235;28;20407;-83
2021/08/16 04:12:18;;;;;;;8.70;2.50;;;;;;;;;;5014436;28;20779;-85
2021/08/16 04:14:44;;;;;;;7.23;2.67;;;;;;;;;;5013747;28;20433;-82
2021/08/16 04:17:10;;;;;;;10.80;2.40;;;;;;;;;;5014545;28;20426;-86
2021/08/16 04:19:36;;;;;;;7.50;2.70;;;;;;;;;;5014080;28;20479;-85
2021/08/16 04:22:02;;;;;;;8.23;2.30;;;;;;;;;;5014304;28;20501;-83
2021/08/16 04:24:28;;;;;;;8.47;3.40;;;;;;;;;;4998236;28;20787;-83
2021/08/16 04:26:54;;;;;;;6.57;2.53;;;;;;;;;;5017870;28;20465;-81
2021/08/16 04:29:20;;;;;;;11.47;2.30;;;;;;;;;;5016051;28;20414;-83
2021/08/16 04:31:46;;;;;;;6.80;2.60;;;;;;;;;;5014036;28;20406;-85
2021/08/16 04:34:12;;;;;;;8.57;2.40;;;;;;;;;;5013789;28;20766;-83
2021/08/16 04:36:38;;;;;;;8.60;3.10;;;;;;;;;;5013703;28;20430;-85
2021/08/16 04:39:04;;;;;;;5.30;1.87;;;;;;;;;;5013663;28;20407;-84
2021/08/16 04:41:30;;;;;;;6.83;2.50;;;;;;;;;;5013685;28;20391;-82
2021/08/16 04:43:56;;;;;;;9.33;2.53;;;;;;;;;;5013462;28;20454;-86
2021/08/16 04:46:22;;;;;;;3.23;2.43;;;;;;;;;;4995996;28;21009;-85
2021/08/16 04:48:48;;;;;;;3.60;2.13;;;;;;;;;;5013548;28;20384;-85
2021/08/16 04:51:14;;;;;;;7.43;1.97;;;;;;;;;;5013522;28;20413;-84
2021/08/16 04:53:40;;;;;;;4.77;2.60;;;;;;;;;;5013259;28;20388;-83
2021/08/16 04:56:06;;;;;;;3.43;1.67;;;;;;;;;;5013583;28;20496;-83
2021/08/16 04:58:32;;;;;;;5.33;2.23;;;;;;;;;;5013460;28;20410;-83
2021/08/16 05:00:58;;;;;;;4.27;2.57;;;;;;;;;;5013535;28;20805;-84
2021/08/16 05:03:24;;;;;;;7.37;3.07;;;;;;;;;;5012862;28;20421;-83
2021/08/16 05:05:55;;;;;;;8.00;2.30;;;;;;;;;;5013287;28;20421;-84
2021/08/16 05:08:21;;;;;;;8.60;2.27;;;;;;;;;;5013343;28;20458;-86
2021/08/16 05:10:47;;;;;;;11.57;2.87;;;;;;;;;;5013587;28;20418;-82
2021/08/16 05:13:13;;;;;;;5.67;2.57;;;;;;;;;;5013244;28;20765;-83
2021/08/16 05:15:43;;;;;;;9.40;2.37;;;;;;;;;;5013426;28;20430;-86
2021/08/16 05:18:09;;;;;;;6.93;3.00;;;;;;;;;;5013157;28;20464;-84
2021/08/16 05:20:37;;;;;;;6.73;2.60;;;;;;;;;;5013404;28;20384;-84
2021/08/16 05:23:03;;;;;;;7.27;2.73;;;;;;;;;;5013043;28;20385;-85
2021/08/16 05:25:29;;;;;;;7.37;3.07;;;;;;;;;;4995661;28;20454;-84
2021/08/16 05:27:55;;;;;;;12.10;2.80;;;;;;;;;;4995922;28;20440;-82
2021/08/16 05:30:21;;;;;;;10.07;2.50;;;;;;;;;;5013231;28;20410;-85
2021/08/16 05:32:47;;;;;;;5.33;2.33;;;;;;;;;;4995497;28;20933;-83
2021/08/16 05:35:14;;;;;;;8.37;3.10;;;;;;;;;;5012989;28;20483;-83
2021/08/16 05:37:40;;;;;;;7.47;2.77;;;;;;;;;;5013126;28;20437;-82
2021/08/16 05:40:06;;;;;;;7.10;3.20;;;;;;;;;;5012651;28;20962;-84
2021/08/16 05:42:32;;;;;;;4.10;2.63;;;;;;;;;;5012294;28;20515;-87
2021/08/16 05:44:59;;;;;;;5.50;2.80;;;;;;;;;;5011743;28;20820;-87
2021/08/16 05:47:24;;;;;;;6.70;3.17;;;;;;;;;;5012619;28;20456;-81
2021/08/16 05:49:51;;;;;;;8.23;3.00;;;;;;;;;;5013122;28;20384;-85
2021/08/16 05:52:16;;;;;;;4.93;2.90;;;;;;;;;;5013145;28;20783;-82
2021/08/16 05:54:42;;;;;;;9.13;3.10;;;;;;;;;;5012730;28;20472;-81
2021/08/16 05:57:08;;;;;;;10.80;2.83;;;;;;;;;;5013021;28;20441;-85
2021/08/16 05:59:34;;;;;;;4.97;2.30;;;;;;;;;;4995467;28;20922;-84
2021/08/16 06:02:00;;;;;;;5.10;3.10;;;;;;;;;;4995404;28;20479;-83
2021/08/16 06:04:26;;;;;;;4.90;2.47;;;;;;;;;;5012510;28;20479;-84
2021/08/16 06:06:52;;;;;;;5.10;2.60;;;;;;;;;;4995288;28;20460;-83
2021/08/16 06:09:18;;;;;;;10.80;2.90;;;;;;;;;;5012754;28;20410;-83
2021/08/16 06:11:44;;;;;;;6.40;3.13;;;;;;;;;;4995118;28;20425;-87
2021/08/16 06:14:10;;;;;;;8.17;2.80;;;;;;;;;;5012607;28;20410;-86
2021/08/16 06:16:37;;;;;;;10.23;3.30;;;;;;;;;;5014104;28;20424;-85
2021/08/16 06:19:03;;;;;;;9.43;2.50;;;;;;;;;;5016378;28;20772;-86
2021/08/16 06:21:31;;;;;;;6.23;2.73;;;;;;;;;;5016271;28;20438;-85
2021/08/16 06:23:57;;;;;;;7.67;2.43;;;;;;;;;;5015891;28;20785;-83
2021/08/16 06:26:23;;;;;;;9.87;2.37;;;;;;;;;;5016126;28;20438;-81
2021/08/16 06:28:49;;;;;;;6.03;2.40;;;;;;;;;;4998576;28;20508;-85
2021/08/16 06:31:15;;;;;;;3.87;2.60;;;;;;;;;;5016071;28;20422;-83
2021/08/16 06:33:41;;;;;;;5.07;2.27;;;;;;;;;;5015691;28;20410;-87
2021/08/16 06:36:08;;;;;;;7.27;2.30;;;;;;;;;;5015950;28;20431;-83
2021/08/16 06:38:34;;;;;;;8.37;2.67;;;;;;;;;;5015868;28;20945;-84
2021/08/16 06:41:01;;;;;;;5.33;1.70;;;;;;;;;;5015917;28;20384;-83
2021/08/16 06:43:28;;;;;;;3.07;1.60;;;;;;;;;;5015555;28;20437;-84
2021/08/16 06:45:54;;;;;;;5.27;2.17;;;;;;;;;;5015602;28;20426;-83
2021/08/16 06:48:20;;;;;;;7.27;2.13;;;;;;;;;;5015648;28;20499;-81
2021/08/16 06:50:46;;;;;;;4.57;2.13;;;;;;;;;;5015751;28;20767;-83
2021/08/16 06:53:14;;;;;;;5.33;2.40;;;;;;;;;;5015298;28;20417;-84
2021/08/16 06:55:40;;;;;;;6.13;2.47;;;;;;;;;;5015571;28;20482;-82
2021/08/16 06:58:06;;;;;;;5.10;2.10;;;;;;;;;;5015488;28;20413;-85
2021/08/16 07:00:32;;;;;;;4.27;2.70;;;;;;;;;;5015520;28;20389;-85
2021/08/16 07:02:58;;;;;;;5.40;2.70;;;;;;;;;;5015214;28;20395;-81
2021/08/16 07:05:25;;;;;;;4.57;1.90;;;;;;;;;;5015573;28;20482;-85
2021/08/16 07:07:53;;;;;;;10.10;3.03;;;;;;;;;;5015271;28;20466;-81
2021/08/16 07:10:20;;;;;;;6.30;2.47;;;;;;;;;;5015205;28;20500;-82
2021/08/16 07:12:46;;;;;;;9.03;2.50;;;;;;;;;;5014910;28;20736;-84
2021/08/16 07:15:12;;;;;;;7.00;2.20;;;;;;;;;;4997520;28;20444;-85
2021/08/16 07:17:38;;;;;;;5.33;1.60;;;;;;;;;;5015062;28;20855;-84
2021/08/16 07:20:05;;;;;;;3.77;1.43;;;;;;;;;;5015121;28;20416;-84
2021/08/16 07:22:31;;;;;;;2.77;1.70;;;;;;;;;;5015104;28;20499;-85
2021/08/16 07:24:57;;;;;;;3.50;2.10;;;;;;;;;;4997304;28;20452;-87
2021/08/16 07:27:23;;;;;;;5.23;2.37;;;;;;;;;;4996861;28;20919;-83
2021/08/16 07:29:49;;;;;;;4.20;1.50;;;;;;;;;;4997465;28;20384;-84
2021/08/16 07:32:15;;;;;;;12.27;2.67;;;;;;;;;;5014885;28;21159;-83
2021/08/16 07:34:41;;;;;;;7.50;2.17;;;;;;;;;;5014576;28;20400;-84
2021/08/16 07:37:09;;;;;;;3.43;1.90;;;;;;;;;;5014932;28;20384;-85
2021/08/16 07:39:35;;;;;;;4.23;2.03;;;;;;;;;;5015107;28;20436;-84
2021/08/16 07:42:01;;;;;;;4.50;1.60;;;;;;;;;;5015271;28;20434;-81
2021/08/16 07:44:27;;;;;;;6.23;1.87;;;;;;;;;;5017196;28;20865;-84
2021/08/16 07:46:56;;;;;;;3.63;2.30;;;;;;;;;;4999557;28;20432;-86
2021/08/16 07:49:22;;;;;;;6.73;2.03;;;;;;;;;;5014699;28;20930;-84
2021/08/16 07:51:48;;;;;;;3.77;2.70;;;;;;;;;;5014607;28;20533;-84
2021/08/16 07:54:14;;;;;;;5.67;2.50;;;;;;;;;;5014215;28;20472;-84
2021/08/16 07:56:40;;;;;;;5.13;2.03;;;;;;;;;;5014533;28;20476;-85
2021/08/16 07:59:06;;;;;;;5.87;2.13;;;;;;;;;;5014514;28;20420;-82
2021/08/16 08:01:32;;;;;;;3.83;2.33;;;;;;;;;;5014612;28;20906;-84
2021/08/16 08:03:58;;;;;;;5.13;2.13;;;;;;;;;;5014212;28;20476;-84
2021/08/16 08:06:25;;;;;;;5.97;1.97;;;;;;;;;;5014283;28;20757;-83
2021/08/16 08:08:51;;;;;;;7.13;2.03;;;;;;;;;;5014272;28;20421;-81
2021/08/16 08:11:17;;;;;;;4.17;1.80;;;;;;;;;;5014424;28;20376;-84
2021/08/16 08:13:43;;;;;;;4.50;1.97;;;;;;;;;;5014000;28;20399;-83
2021/08/16 08:16:09;;;;;;;12.67;2.90;;;;;;;;;;5014095;28;20407;-85
2021/08/16 08:18:35;;;;;;;6.60;2.73;;;;;;;;;;5014022;28;20417;-85
2021/08/16 08:21:01;;;;;;;7.07;2.17;;;;;;;;;;4996548;28;20392;-82
2021/08/16 08:23:27;;;;;;;8.10;2.70;;;;;;;;;;5013876;28;20422;-84
2021/08/16 08:25:53;;;;;;;5.97;1.63;;;;;;;;;;5013880;28;20442;-83
2021/08/16 08:28:19;;;;;;;9.83;2.10;;;;;;;;;;5014064;28;20468;-85
2021/08/16 08:30:46;;;;;;;6.63;3.10;;;;;;;;;;5013962;28;20548;-83
2021/08/16 08:33:14;;;;;;;7.27;2.40;;;;;;;;;;5013596;28;20417;-85
2021/08/16 08:35:40;;;;;;;9.27;2.37;;;;;;;;;;5013843;28;20440;-83
2021/08/16 08:38:06;;;;;;;10.07;2.50;;;;;;;;;;5013751;28;20508;-87
2021/08/16 08:40:32;;;;;;;5.80;2.27;;;;;;;;;;5013382;28;20431;-84
2021/08/16 08:42:58;;;;;;;6.13;2.50;;;;;;;;;;5013456;28;20424;-82
2021/08/16 08:45:26;;;;;;;11.83;2.40;;;;;;;;;;5013657;28;20816;-83
2021/08/16 08:47:53;;;;;;;4.67;2.03;;;;;;;;;;5013647;28;20436;-82
2021/08/16 08:50:19;;;;;;;5.57;2.53;;;;;;;;;;4996337;28;20525;-85
2021/08/16 08:52:45;;;;;;;6.53;2.40;;;;;;;;;;5013321;28;20410;-83
2021/08/16 08:55:12;;;;;;;6.17;2.40;;;;;;;;;;5013592;28;20415;-84
2021/08/16 08:57:38;;;;;;;5.80;1.90;;;;;;;;;;4996391;28;20899;-84
2021/08/16 09:00:06;;;;;;;4.53;1.90;;;;;;;;;;5013597;28;20438;-85
2021/08/16 09:02:32;;;;;;;6.13;2.47;;;;;;;;;;5013437;28;20417;-83
2021/08/16 09:05:00;;;;;;;5.07;2.30;;;;;;;;;;5013106;28;20446;-82
2021/08/16 09:07:44;;;;;;;7.00;2.43;;;;;;;;;;5013392;28;20548;-83
2021/08/16 09:10:11;;;;;;;3.63;1.63;;;;;;;;;;5013570;28;20422;-84
2021/08/16 09:12:38;;;;;;;9.53;2.90;;;;;;;;;;5013360;28;20395;-83
2021/08/16 09:15:13;;;;;;;5.73;1.80;;;;;;;;;;5013193;28;20503;-84
2021/08/16 09:17:39;;;;;;;3.40;2.00;;;;;;;;;;5013358;28;20406;-82
2021/08/16 09:20:22;;;;;;;5.23;1.60;;;;;;;;;;5013348;28;20466;-82
2021/08/16 09:22:56;;;;;;;3.60;1.90;;;;;;;;;;5013057;28;20416;-85
2021/08/16 09:25:22;;;;;;;5.73;1.90;;;;;;;;;;5013275;28;20791;-84
2021/08/16 09:27:49;;;;;;;7.60;2.07;;;;;;;;;;5013280;28;20460;-85
2021/08/16 09:30:16;;;;;;;6.20;2.43;;;;;;;;;;5013393;28;20376;-85
2021/08/16 09:32:43;;;;;;;10.57;2.40;;;;;;;;;;5013112;28;20402;-85
2021/08/16 09:35:12;;;;;;;8.97;2.30;;;;;;;;;;5013045;28;20800;-84
2021/08/16 09:37:40;;;;;;;7.83;2.23;;;;;;;;;;4995551;28;20420;-83
2021/08/16 09:40:07;;;;;;;3.47;1.60;;;;;;;;;;5013307;28;20513;-83
2021/08/16 09:42:40;;;;;;;11.63;1.90;;;;;;;;;;5013189;28;20819;-83
2021/08/16 09:45:07;;;;;;;10.07;3.00;;;;;;;;;;5012868;28;20433;-86
2021/08/16 09:47:44;;;;;;;9.13;2.30;;;;;;;;;;5013097;28;20888;-84
2021/08/16 09:50:12;;;;;;;10.73;1.97;;;;;;;;;;5014110;28;20380;-86
2021/08/16 09:52:38;;;;;;;7.73;2.17;;;;;;;;;;5016742;28;20772;-84
2021/08/16 09:55:04;;;;;;;8.83;1.97;;;;;;;;;;5016484;28;20430;-86
2021/08/16 09:57:34;;;;;;;7.43;2.03;;;;;;;;;;5016704;28;20410;-85
2021/08/16 10:00:00;;;;;;;11.17;2.50;;;;;;;;;;5016737;28;20432;-87
2021/08/16 10:02:26;;;;;;;3.87;2.13;;;;;;;;;;5016808;28;20413;-84
2021/08/16 10:04:58;;;;;;;6.90;2.13;;;;;;;;;;5016204;28;20445;-85
2021/08/16 10:07:29;;;;;;;4.77;2.20;;;;;;;;;;4998799;28;20468;-83
2021/08/16 10:10:00;;;;;;;5.43;2.00;;;;;;;;;;4998927;28;20571;-85
2021/08/16 10:12:27;;;;;;;4.07;2.17;;;;;;;;;;5016626;28;20468;-83
2021/08/16 10:14:53;;;;;;;10.93;2.67;;;;;;;;;;5016018;28;20492;-85
2021/08/16 10:17:21;;;;;;;3.47;2.00;;;;;;;;;;5016382;28;20417;-83
2021/08/16 10:19:49;;;;;;;12.27;2.10;;;;;;;;;;4998751;28;20762;-87
2021/08/16 10:22:15;;;;;;;10.67;2.40;;;;;;;;;;5016317;28;20380;-84
2021/08/16 10:24:41;;;;;;;5.47;2.50;;;;;;;;;;5016022;28;20404;-82
2021/08/16 10:27:09;;;;;;;5.83;2.30;;;;;;;;;;5016093;28;20497;-84
2021/08/16 10:29:37;;;;;;;8.57;2.70;;;;;;;;;;5015955;28;20444;-84
2021/08/16 10:32:04;;;;;;;15.50;2.40;;;;;;;;;;5016185;28;20442;-82
2021/08/16 10:34:35;;;;;;;5.43;1.93;;;;;;;;;;4998285;28;20400;-84
2021/08/16 10:37:02;;;;;;;11.03;2.40;;;;;;;;;;5016127;28;20391;-82
2021/08/16 10:39:39;;;;;;;13.50;3.20;;;;;;;;;;5016032;28;20770;-84
2021/08/16 10:42:07;;;;;;;7.60;2.80;;;;;;;;;;5015973;28;20388;-82
2021/08/16 10:44:43;;;;;;;5.47;2.07;;;;;;;;;;5015538;28;20416;-82
2021/08/16 10:47:10;;;;;;;6.20;2.37;;;;;;;;;;5015769;28;20460;-84
2021/08/16 10:49:41;;;;;;;5.17;2.20;;;;;;;;;;5015714;28;20410;-83
2021/08/16 10:52:20;;;;;;;10.67;3.30;;;;;;;;;;5015876;28;20473;-80
2021/08/16 10:54:46;;;;;;;6.53;2.50;;;;;;;;;;5015571;28;20763;-85
2021/08/16 10:57:12;;;;;;;5.40;2.07;;;;;;;;;;5015935;28;20922;-82
2021/08/16 10:59:39;;;;;;;7.27;2.03;;;;;;;;;;5016508;28;20496;-83
2021/08/16 11:02:05;;;;;;;8.77;2.40;;;;;;;;;;5019445;28;20585;-83
2021/08/16 11:04:32;;;;;;;9.00;2.17;;;;;;;;;;5002676;28;20510;-85
2021/08/16 11:07:02;;;;;;;6.83;3.13;;;;;;;;;;5015452;28;20560;-82
2021/08/16 11:09:29;;;;;;;4.60;2.53;;;;;;;;;;5015262;28;20434;-83
2021/08/16 11:12:05;;;;;;;5.13;2.47;;;;;;;;;;4997869;28;20412;-80
2021/08/16 11:14:31;;;;;;;5.50;2.97;;;;;;;;;;5015027;28;20384;-83
2021/08/16 11:16:58;;;;;;;3.07;1.80;;;;;;;;;;5015129;28;20391;-81
2021/08/16 11:19:24;;;;;;;3.97;1.60;;;;;;;;;;5015141;28;20418;-84
2021/08/16 11:21:58;;;;;;;1.70;1.60;;;;;;;;;;5015338;28;20409;-82
2021/08/16 11:24:37;;;;;;;3.40;2.37;;;;;;;;;;5014961;28;20889;-83
2021/08/16 11:27:04;;;;;;;3.90;3.17;;;;;;;;;;5015089;28;20526;-82
2021/08/16 11:29:30;;;;;;;3.70;3.50;;;;;;;;;;4997644;28;20428;-83
2021/08/16 11:32:01;;;;;;;4.90;3.53;;;;;;;;;;5014852;28;20471;-83
2021/08/16 11:34:29;;;;;;;4.47;3.90;;;;;;;;;;5014604;28;20854;-84
2021/08/16 11:36:56;;;;;;;5.20;4.63;;;;;;;;;;5015012;28;20388;-84
2021/08/16 11:39:29;;;;;;;9.37;4.70;;;;;;;;;;5014659;28;20513;-82
2021/08/16 11:41:58;;;;;;;6.43;5.33;;;;;;;;;;5014762;28;20389;-85
2021/08/16 11:44:25;;;;;;;6.10;5.37;;;;;;;;;;5014490;28;20509;-83
2021/08/16 11:46:51;;;;;;;6.80;5.80;;;;;;;;;;5014647;28;20970;-82
2021/08/16 11:49:17;;;;;;;6.50;5.60;;;;;;;;;;5014732;28;20460;-82
2021/08/16 11:51:44;;;;;;;6.77;5.90;;;;;;;;;;4996941;28;20497;-82
2021/08/16 11:54:10;;;;;;;5.23;4.80;;;;;;;;;;5014181;28;20749;-79
2021/08/16 11:56:39;;;;;;;6.87;6.27;;;;;;;;;;5014350;28;20765;-83
2021/08/16 11:59:12;;;;;;;4.80;4.40;;;;;;;;;;5014470;28;20434;-85
2021/08/16 12:01:40;;;;;;;9.43;6.80;;;;;;;;;;5014485;28;20759;-83
2021/08/16 12:04:07;;;;;;;7.10;6.40;;;;;;;;;;4996317;28;20422;-81
2021/08/16 12:06:33;;;;;;;7.27;6.57;;;;;;;;;;5014333;28;20420;-84
2021/08/16 12:09:07;;;;;;;8.50;6.90;;;;;;;;;;5014152;28;20893;-83
2021/08/16 12:11:33;;;;;;;11.40;7.73;;;;;;;;;;5014178;28;20402;-82
2021/08/16 12:14:01;;;;;;;10.30;6.10;;;;;;;;;;5013745;28;20414;-84
2021/08/16 12:16:30;;;;;;;8.20;6.80;;;;;;;;;;4996445;28;20426;-82
2021/08/16 12:18:57;;;;;;;10.53;7.37;;;;;;;;;;5014135;28;20431;-85
2021/08/16 12:21:23;;;;;;;7.57;6.30;;;;;;;;;;5014041;28;20405;-81
2021/08/16 12:23:53;;;;;;;12.73;8.23;;;;;;;;;;4996000;28;20421;-82
2021/08/16 12:26:30;;;;;;;11.07;6.90;;;;;;;;;;5013807;28;20433;-85
2021/08/16 12:28:56;;;;;;;16.67;7.60;;;;;;;;;;5013939;28;20427;-83
2021/08/16 12:31:28;;;;;;;11.57;6.80;;;;;;;;;;5013898;28;20915;-83
2021/08/16 12:34:00;;;;;;;13.00;7.90;;;;;;;;;;5013747;28;20418;-81
2021/08/16 12:36:28;;;;;;;10.93;7.30;;;;;;;;;;5013649;28;20495;-83
2021/08/16 12:38:55;;;;;;;7.83;6.40;;;;;;;;;;5013674;28;20413;-83
2021/08/16 12:41:25;;;;;;;11.23;6.27;;;;;;;;;;5013867;28;20826;-85
2021/08/16 12:43:51;;;;;;;10.50;7.00;;;;;;;;;;5013288;28;20414;-84
2021/08/16 12:46:27;;;;;;;11.60;7.60;;;;;;;;;;5013580;28;20408;-84
2021/08/16 12:48:53;;;;;;;13.87;7.60;;;;;;;;;;5013545;28;20417;-84
2021/08/16 12:51:19;;;;;;;13.20;6.63;;;;;;;;;;5013601;28;20862;-80
2021/08/16 12:53:45;;;;;;;12.80;8.10;;;;;;;;;;5013342;28;20385;-80
2021/08/16 12:56:11;;;;;;;13.20;7.30;;;;;;;;;;5013676;28;20801;-79
2021/08/16 12:58:37;;;;;;;11.13;7.47;;;;;;;;;;5013462;28;20384;-80
2021/08/16 13:01:03;;;;;;;12.27;7.47;;;;;;;;;;5013469;28;21046;-79
2021/08/16 13:03:29;;;;;;;13.23;7.83;;;;;;;;;;5013373;28;20406;-81
2021/08/16 13:05:55;;;;;;;13.63;8.13;;;;;;;;;;5013561;28;20849;-77
2021/08/16 13:08:21;;;;;;;11.77;7.57;;;;;;;;;;5013315;28;20466;-78
2021/08/16 13:10:47;;;;;;;13.63;7.87;;;;;;;;;;5013449;28;20480;-79
2021/08/16 13:13:13;;;;;;;13.00;8.47;;;;;;;;;;5013154;28;20399;-80
2021/08/16 13:15:39;;;;;;;14.60;8.40;;;;;;;;;;5013124;28;20494;-78
2021/08/16 13:18:06;;;;;;;14.77;9.07;;;;;;;;;;5013444;28;20381;-79
2021/08/16 13:20:34;;;;;;;11.90;7.50;;;;;;;;;;5013637;28;20405;-78
2021/08/16 13:23:00;;;;;;;14.53;9.40;;;;;;;;;;5013147;28;20438;-80
2021/08/16 13:25:26;;;;;;;15.10;9.47;;;;;;;;;;4997022;28;20452;-80
2021/08/16 13:27:52;;;;;;;14.70;9.73;;;;;;;;;;4999732;28;20563;-77
2021/08/16 13:30:18;;;;;;;15.73;9.83;;;;;;;;;;5017268;28;20409;-77
2021/08/16 13:32:44;;;;;;;14.37;8.73;;;;;;;;;;5016842;28;20787;-78
2021/08/16 13:35:10;;;;;;;16.53;9.40;;;;;;;;;;5016957;28;20404;-77
2021/08/16 13:37:36;;;;;;;18.13;10.40;;;;;;;;;;5017083;28;20413;-78
2021/08/16 13:40:03;;;;;;;20.97;11.00;;;;;;;;;;5016760;28;20786;-82
2021/08/16 13:42:28;;;;;;;20.27;10.33;;;;;;;;;;5017059;28;20460;-82
2021/08/16 13:44:54;;;;;;;20.57;11.57;;;;;;;;;;5016514;28;20458;-85
2021/08/16 13:47:21;;;;;;;17.27;10.03;;;;;;;;;;5016846;28;20427;-82
2021/08/16 13:49:47;;;;;;;11.10;8.90;;;;;;;;;;5016913;28;20389;-82
2021/08/16 13:52:12;;;;;;;15.77;10.20;;;;;;;;;;5016659;28;20409;-83
2021/08/16 13:54:38;;;;;;;19.97;10.83;;;;;;;;;;5016473;28;20411;-84
2021/08/16 13:57:05;;;;;;;16.37;9.77;;;;;;;;;;5016581;28;20392;-82
2021/08/16 13:59:30;;;;;;;15.17;10.60;;;;;;;;;;5016782;28;20471;-85
2021/08/16 14:01:58;;;;;;;14.57;11.57;;;;;;;;;;5016592;28;20446;-82
2021/08/16 14:04:24;;;;;;;17.30;10.70;;;;;;;;;;5016758;28;20380;-84
2021/08/16 14:06:51;;;;;;;20.37;13.00;;;;;;;;;;5017715;28;20487;-83
2021/08/16 14:09:19;;;;;;;18.47;12.07;;;;;;;;;;5016719;28;20407;-84
2021/08/16 14:11:46;;;;;;;18.53;12.57;;;;;;;;;;4999075;28;20462;-82
2021/08/16 14:14:12;;;;;;;18.70;13.03;;;;;;;;;;5016491;28;20380;-80
2021/08/16 14:16:38;;;;;;;16.37;12.33;;;;;;;;;;5016056;28;20426;-78
2021/08/16 14:19:04;;;;;;;18.70;13.10;;;;;;;;;;5016426;28;20391;-79
2021/08/16 14:21:31;;;;;;;16.63;11.77;;;;;;;;;;4998990;28;20389;-77
2021/08/16 14:23:57;;;;;;;17.33;11.87;;;;;;;;;;5016019;28;20883;-81
2021/08/16 14:26:23;;;;;;;17.83;13.43;;;;;;;;;;5016056;28;20413;-78
2021/08/16 14:28:50;;;;;;;18.43;13.10;;;;;;;;;;4998491;28;20408;-80
2021/08/16 14:31:16;;;;;;;20.17;13.20;;;;;;;;;;5016048;28;20576;-81
2021/08/16 14:33:42;;;;;;;20.00;12.63;;;;;;;;;;5016067;28;20493;-80
2021/08/16 14:36:09;;;;;;;17.57;11.07;;;;;;;;;;4997851;28;20904;-80